Terminal Aerodrome Forecast
Issued by NWS

Home | Current Version | Previous Version | Text Only | Print | Product List | Glossary On
Versions: 1 2 3 4 5 6 7 8 9 10 11 12 13 14 15 16 17 18 19
779
FTUS43 KILX 101146
TAFBMI
TAF
KBMI 101146Z 1012/1112 27005KT P6SM BKN080
     FM101500 22006KT P6SM OVC045
     FM102100 15007KT P6SM OVC035 PROB30 1021/1103 3SM -SN OVC025
     FM110400 14006KT P6SM OVC050=

USA.gov is the U.S. government's official web portal to all federal, state and local government web resources and services.